createdAt,value
2022-11-13T00:00:52.280Z,18.70
2022-11-13T00:01:52.308Z,19.90
2022-11-13T00:02:52.272Z,19.20
2022-11-13T00:03:52.193Z,19.60
2022-11-13T00:04:52.181Z,18.80
2022-11-13T00:05:52.256Z,18.20
2022-11-13T00:06:57.776Z,19.00
2022-11-13T00:07:54.172Z,22.80
2022-11-13T00:08:52.144Z,23.30
2022-11-13T00:09:52.109Z,22.50
2022-11-13T00:10:52.132Z,22.00
2022-11-13T00:11:52.241Z,22.50
2022-11-13T00:12:52.092Z,23.30
2022-11-13T00:13:52.057Z,22.80
2022-11-13T00:14:52.074Z,22.60
2022-11-13T00:15:52.057Z,23.30
2022-11-13T00:16:52.064Z,23.80
2022-11-13T00:17:52.101Z,23.30
2022-11-13T00:18:52.018Z,22.50
2022-11-13T00:19:52.098Z,21.50
2022-11-13T00:20:51.982Z,21.30
2022-11-13T00:21:51.978Z,20.50
2022-11-13T00:22:51.972Z,20.70
2022-11-13T00:23:51.956Z,20.90
2022-11-13T00:24:52.078Z,21.80
2022-11-13T00:25:51.990Z,22.40
2022-11-13T00:26:51.971Z,22.70
2022-11-13T00:27:52.045Z,22.70
2022-11-13T00:28:51.922Z,21.60
2022-11-13T00:29:51.907Z,21.10
2022-11-13T00:30:51.875Z,22.90
2022-11-13T00:31:51.862Z,22.90
2022-11-13T00:32:52.862Z,23.20
2022-11-13T00:34:53.901Z,23.10
2022-11-13T00:35:51.823Z,23.90
2022-11-13T00:36:51.832Z,23.50
2022-11-13T00:37:51.941Z,21.30
2022-11-13T00:38:51.861Z,20.60
2022-11-13T00:39:54.494Z,21.00
2022-11-13T00:40:52.810Z,21.50
2022-11-13T00:41:51.848Z,22.50
2022-11-13T00:42:51.762Z,24.30
2022-11-13T00:43:51.758Z,22.70
2022-11-13T00:44:52.772Z,22.40
2022-11-13T00:45:51.743Z,23.60
2022-11-13T00:46:51.715Z,24.00
2022-11-13T00:47:51.681Z,25.80
2022-11-13T00:48:51.730Z,25.40
2022-11-13T00:49:51.767Z,23.20
2022-11-13T00:50:51.719Z,23.00
2022-11-13T00:51:51.643Z,22.70
2022-11-13T00:52:51.647Z,22.40
2022-11-13T00:53:51.631Z,21.40
2022-11-13T00:54:51.679Z,22.00
2022-11-13T00:55:51.595Z,23.30
2022-11-13T00:56:51.607Z,22.40
2022-11-13T00:57:51.571Z,22.30
2022-11-13T00:58:51.580Z,22.20
2022-11-13T00:59:51.594Z,22.30
2022-11-13T01:00:51.540Z,23.70
2022-11-13T01:01:52.607Z,23.10
2022-11-13T01:02:51.535Z,21.90
2022-11-13T01:03:52.276Z,23.20
2022-11-13T01:04:51.539Z,23.30
2022-11-13T01:05:51.592Z,22.60
2022-11-13T01:06:51.599Z,21.10
2022-11-13T01:07:52.495Z,21.70
2022-11-13T01:08:51.472Z,21.40
2022-11-13T01:09:51.439Z,22.10
2022-11-13T01:10:53.751Z,22.50
2022-11-13T01:11:52.443Z,22.70
2022-11-13T01:12:51.436Z,20.50
2022-11-13T01:13:51.421Z,22.50
2022-11-13T01:14:51.387Z,22.10
2022-11-13T01:15:51.396Z,20.90
2022-11-13T01:16:51.456Z,19.80
2022-11-13T01:17:51.352Z,19.10
2022-11-13T01:18:51.336Z,19.50
2022-11-13T01:19:51.342Z,20.20
2022-11-13T01:20:51.378Z,18.70
2022-11-13T01:21:51.599Z,21.40
2022-11-13T01:22:51.312Z,21.50
2022-11-13T01:23:51.364Z,20.20
2022-11-13T01:24:51.307Z,20.10
2022-11-13T01:25:51.256Z,20.70
2022-11-13T01:26:51.265Z,20.70
2022-11-13T01:27:51.242Z,21.20
2022-11-13T01:28:51.315Z,22.40
2022-11-13T01:29:51.249Z,23.00
2022-11-13T01:30:51.213Z,21.90
2022-11-13T01:31:51.224Z,20.10
2022-11-13T01:32:51.221Z,21.60
2022-11-13T01:33:51.186Z,21.00
2022-11-13T01:34:51.256Z,21.90
2022-11-13T01:35:51.145Z,20.60
2022-11-13T01:36:51.251Z,19.90
2022-11-13T01:37:51.232Z,19.50
2022-11-13T01:38:51.174Z,19.80
2022-11-13T01:39:51.126Z,21.70
2022-11-13T01:40:51.105Z,24.60
2022-11-13T01:41:51.093Z,28.30
2022-11-13T01:42:51.178Z,25.20
2022-11-13T01:43:51.104Z,27.50
2022-11-13T01:44:51.097Z,26.80
2022-11-13T01:45:51.054Z,24.70
2022-11-13T01:46:51.307Z,22.30
2022-11-13T01:47:51.022Z,23.00
2022-11-13T01:48:51.078Z,21.80
2022-11-13T01:49:51.001Z,22.90
2022-11-13T01:50:51.022Z,22.20
2022-11-13T01:51:51.165Z,21.50
2022-11-13T01:52:50.985Z,22.30
2022-11-13T01:53:51.063Z,23.10
2022-11-13T01:54:50.974Z,20.50
2022-11-13T01:55:50.966Z,19.90
2022-11-13T01:56:50.930Z,18.00
2022-11-13T01:57:51.983Z,17.90
2022-11-13T01:58:52.947Z,15.30
2022-11-13T01:59:53.984Z,15.60
2022-11-13T02:00:52.039Z,15.00
2022-11-13T02:01:52.078Z,13.80
2022-11-13T02:02:54.018Z,15.00
2022-11-13T02:03:53.152Z,14.70
2022-11-13T02:04:53.263Z,18.60
2022-11-13T02:05:54.580Z,19.00
2022-11-13T02:06:53.842Z,22.00
2022-11-13T02:07:51.731Z,22.30
2022-11-13T02:08:52.970Z,21.40
2022-11-13T02:09:51.414Z,20.70
2022-11-13T02:10:53.144Z,20.40
2022-11-13T02:11:53.435Z,19.80
2022-11-13T02:12:51.898Z,19.80
2022-11-13T02:13:52.376Z,20.90
2022-11-13T02:14:53.372Z,21.40
2022-11-13T02:15:52.968Z,22.10
2022-11-13T02:16:51.359Z,23.10
2022-11-13T02:17:50.824Z,22.50
2022-11-13T02:18:50.759Z,22.70
2022-11-13T02:19:50.746Z,22.80
2022-11-13T02:20:50.779Z,28.80
2022-11-13T02:21:50.784Z,25.70
2022-11-13T02:22:50.753Z,27.10
2022-11-13T02:23:50.699Z,30.40
2022-11-13T02:24:54.708Z,26.60
2022-11-13T02:25:51.709Z,28.20
2022-11-13T02:26:50.673Z,32.60
2022-11-13T02:27:50.720Z,33.40
2022-11-13T02:28:50.658Z,26.00
2022-11-13T02:29:50.724Z,22.70
2022-11-13T02:30:50.632Z,24.20
2022-11-13T02:31:50.657Z,23.30
2022-11-13T02:32:50.667Z,21.40
2022-11-13T02:33:50.665Z,21.30
2022-11-13T02:34:50.937Z,20.60
2022-11-13T02:35:50.648Z,20.20
2022-11-13T02:36:50.609Z,21.70
2022-11-13T02:37:50.648Z,22.90
2022-11-13T02:38:50.584Z,22.40
2022-11-13T02:39:50.625Z,21.90
2022-11-13T02:40:50.622Z,20.50
2022-11-13T02:41:50.583Z,19.90
2022-11-13T02:42:50.571Z,19.60
2022-11-13T02:43:50.484Z,20.20
2022-11-13T02:44:50.560Z,25.70
2022-11-13T02:45:50.565Z,20.40
2022-11-13T02:46:50.483Z,18.90
2022-11-13T02:47:50.507Z,21.10
2022-11-13T02:48:50.576Z,19.70
2022-11-13T02:49:50.556Z,19.50
2022-11-13T02:50:50.431Z,18.70
2022-11-13T02:51:50.413Z,18.90
2022-11-13T02:52:50.422Z,18.90
2022-11-13T02:53:50.405Z,19.80
2022-11-13T02:54:50.386Z,22.40
2022-11-13T02:55:50.425Z,20.90
2022-11-13T02:56:50.535Z,20.20
2022-11-13T02:57:50.394Z,20.20
2022-11-13T02:58:50.312Z,22.20
2022-11-13T02:59:50.393Z,22.00
2022-11-13T03:00:50.402Z,22.40
2022-11-13T03:01:50.339Z,23.10
2022-11-13T03:02:50.269Z,22.80
2022-11-13T03:03:58.461Z,23.70
2022-11-13T03:05:11.382Z,22.60
2022-11-13T03:05:52.316Z,24.00
2022-11-13T03:06:50.372Z,24.00
2022-11-13T03:07:50.257Z,21.70
2022-11-13T03:08:50.314Z,22.50
2022-11-13T03:09:50.309Z,21.50
2022-11-13T03:10:50.279Z,20.60
2022-11-13T03:11:50.627Z,22.20
2022-11-13T03:12:50.349Z,20.80
2022-11-13T03:13:50.162Z,20.10
2022-11-13T03:14:50.198Z,19.80
2022-11-13T03:15:50.245Z,19.40
2022-11-13T03:16:50.237Z,18.70
2022-11-13T03:17:50.265Z,18.50
2022-11-13T03:18:50.069Z,19.00
2022-11-13T03:19:50.123Z,19.30
2022-11-13T03:20:50.061Z,19.70
2022-11-13T03:21:50.158Z,18.50
2022-11-13T03:22:50.094Z,19.70
2022-11-13T03:23:50.046Z,18.70
2022-11-13T03:24:50.052Z,19.40
2022-11-13T03:26:24.059Z,19.00
2022-11-13T03:27:24.077Z,18.40
2022-11-13T03:28:26.427Z,17.90
2022-11-13T03:28:49.998Z,19.30
2022-11-13T03:29:50.075Z,18.70
2022-11-13T03:30:49.978Z,19.20
2022-11-13T03:31:49.991Z,17.80
2022-11-13T03:32:50.099Z,19.30
2022-11-13T03:33:50.010Z,19.50
2022-11-13T03:34:49.949Z,17.90
2022-11-13T03:35:50.242Z,19.20
2022-11-13T03:36:49.944Z,21.10
2022-11-13T03:37:49.991Z,22.30
2022-11-13T03:38:50.026Z,24.20
2022-11-13T03:39:49.931Z,23.30
2022-11-13T03:40:49.871Z,24.80
2022-11-13T03:41:50.415Z,21.80
2022-11-13T03:42:49.828Z,21.70
2022-11-13T03:43:50.964Z,21.00
2022-11-13T03:44:49.847Z,19.40
2022-11-13T03:45:49.776Z,18.50
2022-11-13T03:46:49.771Z,17.80
2022-11-13T03:47:49.790Z,18.50
2022-11-13T03:48:49.813Z,17.50
2022-11-13T03:49:49.836Z,18.40
2022-11-13T03:50:49.755Z,18.20
2022-11-13T03:51:49.853Z,20.70
2022-11-13T03:52:49.708Z,18.00
2022-11-13T03:53:49.756Z,18.10
2022-11-13T03:54:49.743Z,16.90
2022-11-13T03:55:49.795Z,16.40
2022-11-13T03:56:49.753Z,16.40
2022-11-13T03:57:49.703Z,18.50
2022-11-13T03:58:49.918Z,18.10
2022-11-13T03:59:50.761Z,18.00
2022-11-13T04:00:49.698Z,19.10
2022-11-13T04:01:49.664Z,18.70
2022-11-13T04:02:49.600Z,18.50
2022-11-13T04:03:49.625Z,17.70
2022-11-13T04:04:49.700Z,17.50
2022-11-13T04:05:49.602Z,16.80
2022-11-13T04:06:49.703Z,15.80
2022-11-13T04:07:49.648Z,16.40
2022-11-13T04:08:49.575Z,15.90
2022-11-13T04:09:49.563Z,15.90
2022-11-13T04:10:49.603Z,15.60
2022-11-13T04:11:49.564Z,16.50
2022-11-13T04:12:49.643Z,15.00
2022-11-13T04:13:49.469Z,17.10
2022-11-13T04:14:49.507Z,16.60
2022-11-13T04:15:49.540Z,17.80
2022-11-13T04:16:50.415Z,17.40
2022-11-13T04:17:49.520Z,18.10
2022-11-13T04:18:49.853Z,18.30
2022-11-13T04:19:49.489Z,19.40
2022-11-13T04:20:49.496Z,18.50
2022-11-13T04:21:49.463Z,18.20
2022-11-13T04:22:49.507Z,16.00
2022-11-13T04:23:49.424Z,17.50
2022-11-13T04:24:49.485Z,17.60
2022-11-13T04:25:49.403Z,17.50
2022-11-13T04:26:49.452Z,19.00
2022-11-13T04:27:49.408Z,21.60
2022-11-13T04:28:49.503Z,18.60
2022-11-13T04:29:49.423Z,18.50
2022-11-13T04:30:49.338Z,26.60
2022-11-13T04:31:49.608Z,28.50
2022-11-13T04:32:49.394Z,22.70
2022-11-13T04:33:49.310Z,21.50
2022-11-13T04:34:49.307Z,24.30
2022-11-13T04:35:49.336Z,24.60
2022-11-13T04:36:49.400Z,23.40
2022-11-13T04:37:49.262Z,28.70
2022-11-13T04:38:49.384Z,29.20
2022-11-13T04:39:49.350Z,24.40
2022-11-13T04:40:49.233Z,29.70
2022-11-13T04:41:55.030Z,30.20
2022-11-13T04:42:49.472Z,28.00
2022-11-13T04:43:49.184Z,26.00
2022-11-13T04:44:49.222Z,22.60
2022-11-13T04:45:49.181Z,20.60
2022-11-13T04:46:49.193Z,23.40
2022-11-13T04:47:49.179Z,19.70
2022-11-13T04:48:49.214Z,18.00
2022-11-13T04:49:49.120Z,20.10
2022-11-13T04:50:49.206Z,17.20
2022-11-13T04:51:49.138Z,16.60
2022-11-13T04:52:49.170Z,16.50
2022-11-13T04:53:49.142Z,19.20
2022-11-13T04:54:49.133Z,16.10
2022-11-13T04:55:49.065Z,15.70
2022-11-13T04:56:49.058Z,16.20
2022-11-13T04:57:49.095Z,15.40
2022-11-13T04:58:49.070Z,15.70
2022-11-13T04:59:49.121Z,16.10
2022-11-13T05:00:49.071Z,17.70
2022-11-13T05:01:49.096Z,18.10
2022-11-13T05:02:49.004Z,16.00
2022-11-13T05:03:49.060Z,16.50
2022-11-13T05:04:49.031Z,26.00
2022-11-13T05:05:48.927Z,24.50
2022-11-13T05:06:48.957Z,18.50
2022-11-13T05:07:49.003Z,16.80
2022-11-13T05:08:49.065Z,23.40
2022-11-13T05:09:48.848Z,16.90
2022-11-13T05:10:49.007Z,19.20
2022-11-13T05:11:48.947Z,20.70
2022-11-13T05:12:49.028Z,18.70
2022-11-13T05:13:48.990Z,18.30
2022-11-13T05:14:49.078Z,24.20
2022-11-13T05:15:48.933Z,24.20
2022-11-13T05:16:48.886Z,19.40
2022-11-13T05:17:48.871Z,20.10
2022-11-13T05:18:48.963Z,22.60
2022-11-13T05:19:48.869Z,20.50
2022-11-13T05:20:48.922Z,19.40
2022-11-13T05:21:48.778Z,17.70
2022-11-13T05:22:48.903Z,17.60
2022-11-13T05:23:48.934Z,19.60
2022-11-13T05:24:48.783Z,17.30
2022-11-13T05:25:48.874Z,16.60
2022-11-13T05:26:48.786Z,16.40
2022-11-13T05:27:48.610Z,17.50
2022-11-13T05:28:48.639Z,16.80
2022-11-13T05:29:48.575Z,15.60
2022-11-13T05:30:48.621Z,15.40
2022-11-13T05:31:48.704Z,14.80
2022-11-13T05:32:48.555Z,14.50
2022-11-13T05:33:48.543Z,14.50
2022-11-13T05:34:48.554Z,13.50
2022-11-13T05:35:49.355Z,12.30
2022-11-13T05:36:48.510Z,12.80
2022-11-13T05:37:48.530Z,11.30
2022-11-13T05:38:48.540Z,12.10
2022-11-13T05:39:48.540Z,12.00
2022-11-13T05:40:48.470Z,10.80
2022-11-13T05:41:48.475Z,11.30
2022-11-13T05:42:48.472Z,11.40
2022-11-13T05:43:48.441Z,12.10
2022-11-13T05:44:48.422Z,11.80
2022-11-13T05:45:48.435Z,12.60
2022-11-13T05:46:48.411Z,10.10
2022-11-13T05:47:48.403Z,12.60
2022-11-13T05:50:17.063Z,13.10
2022-11-13T05:50:23.391Z,12.30
2022-11-13T05:51:18.634Z,10.60
2022-11-13T05:52:25.031Z,11.70
2022-11-13T05:53:22.895Z,10.60
2022-11-13T05:54:18.615Z,11.20
2022-11-13T05:55:23.042Z,10.30
2022-11-13T05:56:18.501Z,10.40
2022-11-13T05:57:18.629Z,11.40
2022-11-13T05:58:19.480Z,12.30
2022-11-13T05:59:19.301Z,10.80
2022-11-13T06:00:18.445Z,11.50
2022-11-13T06:01:18.467Z,12.20
2022-11-13T06:02:18.478Z,11.40
2022-11-13T06:03:18.397Z,11.30
2022-11-13T06:04:18.416Z,11.00
2022-11-13T06:05:18.388Z,10.90
2022-11-13T06:06:18.386Z,9.90
2022-11-13T06:07:18.422Z,10.80
2022-11-13T06:08:18.372Z,12.00
2022-11-13T06:09:18.389Z,9.10
2022-11-13T06:10:19.247Z,10.40
2022-11-13T06:11:18.364Z,10.00
2022-11-13T06:12:18.341Z,10.10
2022-11-13T06:13:18.290Z,10.50
2022-11-13T06:14:18.308Z,10.50
2022-11-13T06:15:18.269Z,10.90
2022-11-13T06:16:18.269Z,10.10
2022-11-13T06:17:18.302Z,10.60
2022-11-13T06:18:21.314Z,10.50
2022-11-13T06:19:19.246Z,11.20
2022-11-13T06:20:18.238Z,12.00
2022-11-13T06:21:18.213Z,11.00
2022-11-13T06:22:18.197Z,10.70
2022-11-13T06:23:18.435Z,12.50
2022-11-13T06:24:18.300Z,12.00
2022-11-13T06:25:18.206Z,12.30
2022-11-13T06:26:18.156Z,11.40
2022-11-13T06:27:18.153Z,12.60
2022-11-13T06:28:18.163Z,11.80
2022-11-13T06:29:18.185Z,11.30
2022-11-13T06:30:18.110Z,14.80
2022-11-13T06:31:18.116Z,15.90
2022-11-13T06:32:18.109Z,15.50
2022-11-13T06:33:18.065Z,14.70
2022-11-13T06:34:18.159Z,14.80
2022-11-13T06:35:18.083Z,14.40
2022-11-13T06:36:18.087Z,13.00
2022-11-13T06:37:18.035Z,12.40
2022-11-13T06:38:18.059Z,11.70
2022-11-13T06:39:18.113Z,10.40
2022-11-13T06:40:18.007Z,10.60
2022-11-13T06:41:18.007Z,10.50
2022-11-13T06:42:17.979Z,9.70
2022-11-13T06:43:17.994Z,9.10
2022-11-13T06:44:17.952Z,10.80
2022-11-13T06:45:17.983Z,9.60
2022-11-13T06:46:17.955Z,9.70
2022-11-13T06:47:18.000Z,9.80
2022-11-13T06:48:17.944Z,9.90
2022-11-13T06:49:17.904Z,9.40
2022-11-13T06:50:17.940Z,11.10
2022-11-13T06:51:17.952Z,9.20
2022-11-13T06:52:18.873Z,9.80
2022-11-13T06:53:17.869Z,11.20
2022-11-13T06:54:17.892Z,12.30
2022-11-13T06:55:17.914Z,12.50
2022-11-13T06:56:17.876Z,12.60
2022-11-13T06:57:17.840Z,10.90
2022-11-13T06:58:17.816Z,10.90
2022-11-13T06:59:17.820Z,10.00
2022-11-13T07:00:17.798Z,11.00
2022-11-13T07:01:17.910Z,9.70
2022-11-13T07:02:17.804Z,9.90
2022-11-13T07:03:17.796Z,8.70
2022-11-13T07:04:17.824Z,9.40
2022-11-13T07:05:17.749Z,9.00
2022-11-13T07:06:17.945Z,8.80
2022-11-13T07:07:17.770Z,8.10
2022-11-13T07:08:17.725Z,7.20
2022-11-13T07:09:17.713Z,7.20
2022-11-13T07:10:17.713Z,7.30
2022-11-13T07:11:17.742Z,6.90
2022-11-13T07:12:17.705Z,6.70
2022-11-13T07:13:17.713Z,6.20
2022-11-13T07:14:17.673Z,7.10
2022-11-13T07:15:17.638Z,7.30
2022-11-13T07:16:18.275Z,7.90
2022-11-13T07:17:18.585Z,8.20
2022-11-13T07:18:21.517Z,8.40
2022-11-13T07:19:17.580Z,7.20
2022-11-13T07:20:17.574Z,6.90
2022-11-13T07:21:17.541Z,7.20
2022-11-13T07:22:17.593Z,7.40
2022-11-13T07:23:17.566Z,6.80
2022-11-13T07:24:17.532Z,7.20
2022-11-13T07:25:17.512Z,8.20
2022-11-13T07:26:17.529Z,7.10
2022-11-13T07:27:17.473Z,7.00
2022-11-13T07:28:17.513Z,6.90
2022-11-13T07:29:17.482Z,6.90
2022-11-13T07:30:18.459Z,7.00
2022-11-13T07:31:17.421Z,7.00
2022-11-13T07:32:17.479Z,7.00
2022-11-13T07:33:17.430Z,6.60
2022-11-13T07:34:17.445Z,6.70
2022-11-13T07:35:17.401Z,6.50
2022-11-13T07:36:17.381Z,7.00
2022-11-13T07:37:17.414Z,7.10
2022-11-13T07:38:17.367Z,6.60
2022-11-13T07:39:17.378Z,6.30
2022-11-13T07:40:17.366Z,6.70
2022-11-13T07:41:17.379Z,6.60
2022-11-13T07:42:17.331Z,6.00
2022-11-13T07:43:17.396Z,6.00
2022-11-13T07:44:39.980Z,6.10
2022-11-13T07:45:19.280Z,5.90
2022-11-13T07:46:17.278Z,6.00
2022-11-13T07:47:17.279Z,5.20
2022-11-13T07:48:17.266Z,5.90
2022-11-13T07:49:17.268Z,5.30
2022-11-13T07:50:17.258Z,5.40
2022-11-13T07:51:17.259Z,5.10
2022-11-13T07:52:17.239Z,5.40
2022-11-13T07:53:17.201Z,4.90
2022-11-13T07:54:18.112Z,5.20
2022-11-13T07:55:17.232Z,5.50
2022-11-13T07:56:22.770Z,5.10
2022-11-13T07:57:19.155Z,5.10
2022-11-13T07:58:17.169Z,4.80
2022-11-13T07:59:17.232Z,4.50
2022-11-13T08:00:17.138Z,5.40
2022-11-13T08:01:17.242Z,5.70
2022-11-13T08:02:17.128Z,4.60
2022-11-13T08:03:17.128Z,4.70
2022-11-13T08:04:17.087Z,4.50
2022-11-13T08:05:17.069Z,4.60
2022-11-13T08:06:17.612Z,4.80
2022-11-13T08:07:17.120Z,4.50
2022-11-13T08:08:17.096Z,4.70
2022-11-13T08:09:17.031Z,4.60
2022-11-13T08:10:17.052Z,4.60
2022-11-13T08:11:17.058Z,4.30
2022-11-13T08:12:16.991Z,4.10
2022-11-13T08:13:17.608Z,4.80
2022-11-13T08:14:16.980Z,4.50
2022-11-13T08:15:17.040Z,4.30
2022-11-13T08:16:16.990Z,5.20
2022-11-13T08:17:16.938Z,5.00
2022-11-13T08:18:16.923Z,5.60
2022-11-13T08:19:16.935Z,5.90
2022-11-13T08:20:16.920Z,5.20
2022-11-13T08:21:16.915Z,5.30
2022-11-13T08:22:16.873Z,5.40
2022-11-13T08:23:16.896Z,5.20
2022-11-13T08:24:16.858Z,4.90
2022-11-13T08:25:16.866Z,5.20
2022-11-13T08:26:16.964Z,4.60
2022-11-13T08:27:16.805Z,5.40
2022-11-13T08:28:16.812Z,5.00
2022-11-13T08:29:16.827Z,4.80
2022-11-13T08:30:16.769Z,4.90
2022-11-13T08:31:17.120Z,4.70
2022-11-13T08:32:16.783Z,4.60
2022-11-13T08:33:16.781Z,4.40
2022-11-13T08:34:16.816Z,4.50
2022-11-13T08:35:19.398Z,4.50
2022-11-13T08:36:17.733Z,4.70
2022-11-13T08:37:16.799Z,4.90
2022-11-13T08:38:16.719Z,4.80
2022-11-13T08:39:16.711Z,4.80
2022-11-13T08:40:16.709Z,5.10
2022-11-13T08:41:16.686Z,5.00
2022-11-13T08:42:16.667Z,4.90
2022-11-13T08:43:16.662Z,4.70
2022-11-13T08:44:16.662Z,4.90
2022-11-13T08:45:16.658Z,4.50
2022-11-13T08:46:16.662Z,4.80
2022-11-13T08:47:16.685Z,5.20
2022-11-13T08:48:16.614Z,5.00
2022-11-13T08:49:16.589Z,4.70
2022-11-13T08:50:16.638Z,4.70
2022-11-13T08:51:16.599Z,4.30
2022-11-13T08:52:16.580Z,4.60
2022-11-13T08:53:16.571Z,4.50
2022-11-13T08:54:16.597Z,4.20
2022-11-13T08:55:16.519Z,4.80
2022-11-13T08:56:16.512Z,4.50
2022-11-13T08:57:16.537Z,4.80
2022-11-13T08:58:16.524Z,4.90
2022-11-13T08:59:16.512Z,4.50
2022-11-13T09:00:16.467Z,4.50
2022-11-13T09:01:16.570Z,4.50
2022-11-13T09:02:16.512Z,4.70
2022-11-13T09:03:16.463Z,4.20
2022-11-13T09:04:16.419Z,4.50
2022-11-13T09:05:16.430Z,4.30
2022-11-13T09:06:16.406Z,4.10
2022-11-13T09:07:16.545Z,4.30
2022-11-13T09:08:16.398Z,4.20
2022-11-13T09:09:16.412Z,3.90
2022-11-13T09:10:16.346Z,3.90
2022-11-13T09:11:16.403Z,4.00
2022-11-13T09:12:16.332Z,4.10
2022-11-13T09:13:17.352Z,4.10
2022-11-13T09:14:16.360Z,4.00
2022-11-13T09:15:19.109Z,4.10
2022-11-13T09:16:18.312Z,4.10
2022-11-13T09:17:16.300Z,3.90
2022-11-13T09:18:16.328Z,4.00
2022-11-13T09:19:16.350Z,3.90
2022-11-13T09:20:21.591Z,4.20
2022-11-13T09:21:17.265Z,4.30
2022-11-13T09:22:16.243Z,4.30
2022-11-13T09:23:16.312Z,3.90
2022-11-13T09:24:16.221Z,4.00
2022-11-13T09:25:16.192Z,4.00
2022-11-13T09:26:16.222Z,3.90
2022-11-13T09:27:16.237Z,4.30
2022-11-13T09:28:16.181Z,4.40
2022-11-13T09:29:16.188Z,4.40
2022-11-13T09:30:16.129Z,4.30
2022-11-13T09:31:16.160Z,4.50
2022-11-13T09:32:16.140Z,4.30
2022-11-13T09:33:16.114Z,4.30
2022-11-13T09:34:16.162Z,4.60
2022-11-13T09:35:16.177Z,4.50
2022-11-13T09:36:16.746Z,4.90
2022-11-13T09:37:16.073Z,5.10
2022-11-13T09:38:16.209Z,5.50
2022-11-13T09:39:17.064Z,5.20
2022-11-13T09:40:16.077Z,5.10
2022-11-13T09:41:16.078Z,5.20
2022-11-13T09:42:16.078Z,5.20
2022-11-13T09:43:16.017Z,5.40
2022-11-13T09:44:16.002Z,6.00
2022-11-13T09:45:16.062Z,7.50
2022-11-13T09:46:15.997Z,6.90
2022-11-13T09:47:16.021Z,6.90
2022-11-13T09:48:16.020Z,6.90
2022-11-13T09:49:16.012Z,6.60
2022-11-13T09:50:15.932Z,7.40
2022-11-13T09:51:16.013Z,7.20
2022-11-13T09:52:15.972Z,6.70
2022-11-13T09:53:15.966Z,7.20
2022-11-13T09:54:15.890Z,7.20
2022-11-13T09:55:15.904Z,7.40
2022-11-13T09:56:15.882Z,7.30
2022-11-13T09:57:15.926Z,7.30
2022-11-13T09:58:16.218Z,8.20
2022-11-13T09:59:15.823Z,8.10
2022-11-13T10:00:15.843Z,8.10
2022-11-13T10:01:15.944Z,8.50
2022-11-13T10:02:15.810Z,9.10
2022-11-13T10:03:28.005Z,8.50
2022-11-13T10:04:17.696Z,8.60
2022-11-13T10:05:15.774Z,8.30
2022-11-13T10:06:15.770Z,8.90
2022-11-13T10:07:15.889Z,8.70
2022-11-13T10:08:15.721Z,8.30
2022-11-13T10:09:15.734Z,8.50
2022-11-13T10:10:16.538Z,9.00
2022-11-13T10:11:15.703Z,8.60
2022-11-13T10:12:15.662Z,8.50
2022-11-13T10:13:15.758Z,8.30
2022-11-13T10:14:52.570Z,8.70
2022-11-13T10:17:03.559Z,9.20
2022-11-13T10:19:36.469Z,9.00
2022-11-13T10:21:03.415Z,9.20
2022-11-13T10:21:37.535Z,9.50
2022-11-13T10:22:36.645Z,9.50
2022-11-13T10:23:36.568Z,9.20
2022-11-13T10:24:36.511Z,9.90
2022-11-13T10:25:36.527Z,9.50
2022-11-13T10:26:36.523Z,9.50
2022-11-13T10:27:36.590Z,9.00
2022-11-13T10:28:50.563Z,8.80
2022-11-13T10:29:38.507Z,9.50
2022-11-13T10:30:36.449Z,8.70
2022-11-13T10:31:36.462Z,9.20
2022-11-13T10:32:36.439Z,9.40
2022-11-13T10:33:36.449Z,9.20
2022-11-13T10:34:36.443Z,9.60
2022-11-13T10:35:37.575Z,9.00
2022-11-13T10:36:36.499Z,9.20
2022-11-13T10:37:36.515Z,10.00
2022-11-13T10:38:36.522Z,9.80
2022-11-13T10:39:36.371Z,9.90
2022-11-13T10:40:36.621Z,10.20
2022-11-13T10:41:36.416Z,9.70
2022-11-13T10:42:37.243Z,9.80
2022-11-13T10:43:36.460Z,9.50
2022-11-13T10:44:36.951Z,9.80
2022-11-13T10:45:36.541Z,10.10
2022-11-13T10:46:36.459Z,9.70
2022-11-13T10:48:02.654Z,10.20
2022-11-13T10:48:38.348Z,9.70
2022-11-13T10:49:36.309Z,10.40
2022-11-13T10:50:36.317Z,10.30
2022-11-13T10:51:36.647Z,9.80
2022-11-13T10:52:36.364Z,9.90
2022-11-13T10:53:36.465Z,8.90
2022-11-13T10:54:36.332Z,8.70
2022-11-13T10:55:36.343Z,7.50
2022-11-13T10:56:36.461Z,7.40
2022-11-13T10:57:36.592Z,7.00
2022-11-13T10:58:36.373Z,6.90
2022-11-13T10:59:36.555Z,6.80
2022-11-13T11:00:36.449Z,6.60
2022-11-13T11:01:36.454Z,7.00
2022-11-13T11:02:36.268Z,6.90
2022-11-13T11:03:36.456Z,6.70
2022-11-13T11:04:36.181Z,6.70
2022-11-13T11:05:36.066Z,8.20
2022-11-13T11:07:12.606Z,8.60
2022-11-13T11:07:38.559Z,8.60
2022-11-13T11:08:36.081Z,7.90
2022-11-13T11:09:36.127Z,8.40
2022-11-13T11:10:36.313Z,9.10
2022-11-13T11:11:36.152Z,9.00
2022-11-13T11:12:36.229Z,9.10
2022-11-13T11:13:36.163Z,9.30
2022-11-13T11:14:36.163Z,10.10
2022-11-13T11:15:36.087Z,9.90
2022-11-13T11:16:36.155Z,9.80
2022-11-13T11:17:36.167Z,10.20
2022-11-13T11:18:36.022Z,8.90
2022-11-13T11:19:35.987Z,8.80
2022-11-13T11:20:36.014Z,7.80
2022-11-13T11:21:35.995Z,7.70
2022-11-13T11:22:36.031Z,8.00
2022-11-13T11:23:35.967Z,7.70
2022-11-13T11:24:36.167Z,8.20
2022-11-13T11:25:36.102Z,8.70
2022-11-13T11:26:35.994Z,8.90
2022-11-13T11:27:36.143Z,8.90
2022-11-13T11:28:36.106Z,8.80
2022-11-13T11:29:36.054Z,8.30
2022-11-13T11:30:35.979Z,8.10
2022-11-13T11:31:36.120Z,9.80
2022-11-13T11:32:36.016Z,9.30
2022-11-13T11:33:36.048Z,8.80
2022-11-13T11:34:36.357Z,8.20
2022-11-13T11:35:35.957Z,8.50
2022-11-13T11:36:35.887Z,8.70
2022-11-13T11:37:36.157Z,8.00
2022-11-13T11:38:35.926Z,7.90
2022-11-13T11:39:35.996Z,8.00
2022-11-13T11:40:35.869Z,8.40
2022-11-13T11:41:35.847Z,8.20
2022-11-13T11:42:35.905Z,9.30
2022-11-13T11:43:35.739Z,8.90
2022-11-13T11:44:35.971Z,8.30
2022-11-13T11:45:35.660Z,8.20
2022-11-13T11:46:35.749Z,8.20
2022-11-13T11:47:35.699Z,8.00
2022-11-13T11:48:35.672Z,8.10
2022-11-13T11:49:35.683Z,8.10
2022-11-13T11:50:35.601Z,7.90
2022-11-13T11:51:35.620Z,8.20
2022-11-13T11:52:36.820Z,8.00
2022-11-13T11:53:35.686Z,8.00
2022-11-13T11:54:35.595Z,8.70
2022-11-13T11:55:35.588Z,8.10
2022-11-13T11:56:35.600Z,8.10
2022-11-13T11:57:35.587Z,8.10
2022-11-13T11:58:35.957Z,8.10
2022-11-13T11:59:35.765Z,7.80
2022-11-13T12:00:35.679Z,8.30
2022-11-13T12:01:35.839Z,8.00
2022-11-13T12:02:35.601Z,7.90
2022-11-13T12:03:35.595Z,8.80
2022-11-13T12:04:35.611Z,8.80
2022-11-13T12:05:35.509Z,8.90
2022-11-13T12:06:35.508Z,8.10
2022-11-13T12:07:35.535Z,8.60
2022-11-13T12:08:35.430Z,8.70
2022-11-13T12:09:35.436Z,9.20
2022-11-13T12:10:35.680Z,8.90
2022-11-13T12:11:35.733Z,8.90
2022-11-13T12:12:35.356Z,8.40
2022-11-13T12:13:35.420Z,9.10
2022-11-13T12:14:35.443Z,9.20
2022-11-13T12:15:35.349Z,9.60
2022-11-13T12:16:35.382Z,9.00
2022-11-13T12:17:35.380Z,8.80
2022-11-13T12:18:35.403Z,9.70
2022-11-13T12:19:35.286Z,9.90
2022-11-13T12:20:35.431Z,9.70
2022-11-13T12:21:35.319Z,9.40
2022-11-13T12:22:35.696Z,8.60
2022-11-13T12:23:35.381Z,8.70
2022-11-13T12:24:35.433Z,9.30
2022-11-13T12:25:35.485Z,8.90
2022-11-13T12:26:35.810Z,8.80
2022-11-13T12:27:35.387Z,8.30
2022-11-13T12:28:39.779Z,8.30
2022-11-13T12:29:37.249Z,8.10
2022-11-13T12:30:35.239Z,8.60
2022-11-13T12:31:35.197Z,8.40
2022-11-13T12:32:35.104Z,8.00
2022-11-13T12:33:35.331Z,8.50
2022-11-13T12:34:35.386Z,8.30
2022-11-13T12:35:35.309Z,8.50
2022-11-13T12:36:35.108Z,8.50
2022-11-13T12:37:35.165Z,8.50
2022-11-13T12:38:35.224Z,7.90
2022-11-13T12:39:35.328Z,8.30
2022-11-13T12:40:38.629Z,8.10
2022-11-13T12:41:36.316Z,8.80
2022-11-13T12:42:35.137Z,8.20
2022-11-13T12:43:35.426Z,7.90
2022-11-13T12:44:35.325Z,8.00
2022-11-13T12:45:35.130Z,8.60
2022-11-13T12:46:35.072Z,8.40
2022-11-13T12:47:35.587Z,7.80
2022-11-13T12:48:36.681Z,8.50
2022-11-13T12:49:36.359Z,8.40
2022-11-13T12:50:35.693Z,8.30
2022-11-13T12:51:35.794Z,8.40
2022-11-13T12:52:40.929Z,8.20
2022-11-13T12:53:35.772Z,8.20
2022-11-13T12:54:35.189Z,8.30
2022-11-13T12:55:34.898Z,8.00
2022-11-13T12:56:35.737Z,7.60
2022-11-13T12:57:34.900Z,7.20
2022-11-13T12:58:35.057Z,7.40
2022-11-13T12:59:35.225Z,7.70
2022-11-13T13:00:35.436Z,7.50
2022-11-13T13:01:35.001Z,8.00
2022-11-13T13:02:34.987Z,7.50
2022-11-13T13:03:34.873Z,7.30
2022-11-13T13:04:34.978Z,7.80
2022-11-13T13:05:35.305Z,8.20
2022-11-13T13:06:34.821Z,7.90
2022-11-13T13:07:34.765Z,8.30
2022-11-13T13:08:34.750Z,7.60
2022-11-13T13:09:34.810Z,8.00